Terminal Aerodrome Forecast
Issued by NWS

Home | Current Version | Previous Version | Text Only | Print | Product List | Glossary On
Versions: 1 2 3 4 5 6 7 8 9 10 11 12 13 14 15 16 17 18 19 20 21 22 23 24 25
000
FTUS42 KRAH 201727
TAFINT
TAF
KINT 201727Z 2018/2118 03005KT P6SM OVC060
     FM202200 08005KT P6SM BKN060
     FM210300 00000KT 5SM BR BKN050
      TEMPO 2109/2112 1/2SM FG
     FM211400 06003KT P6SM OVC040=

USA.gov is the U.S. government's official web portal to all federal, state and local government web resources and services.